sensor_id;sensor_type;location;lat;lon;timestamp;pressure;altitude;pressure_sealevel;temperature;humidity
25350;BME280;13302;48.796;11.978;2022-10-14T00:00:07;97004.13;;;14.57;42.09
25350;BME280;13302;48.796;11.978;2022-10-14T00:02:57;97002.53;;;14.56;42.01
25350;BME280;13302;48.796;11.978;2022-10-14T00:05:44;97006.50;;;14.55;42.06
25350;BME280;13302;48.796;11.978;2022-10-14T00:08:31;97009.63;;;14.53;42.29
25350;BME280;13302;48.796;11.978;2022-10-14T00:11:22;97018.78;;;14.54;42.17
25350;BME280;13302;48.796;11.978;2022-10-14T00:14:12;97013.63;;;14.52;42.06
25350;BME280;13302;48.796;11.978;2022-10-14T00:16:59;97015.19;;;14.53;42.11
25350;BME280;13302;48.796;11.978;2022-10-14T00:19:47;97012.41;;;14.53;42.13
25350;BME280;13302;48.796;11.978;2022-10-14T00:22:34;97014.38;;;14.53;42.39
25350;BME280;13302;48.796;11.978;2022-10-14T00:25:21;97020.34;;;14.51;42.29
25350;BME280;13302;48.796;11.978;2022-10-14T00:28:08;97013.97;;;14.51;42.58
25350;BME280;13302;48.796;11.978;2022-10-14T00:30:56;97012.38;;;14.50;42.14
25350;BME280;13302;48.796;11.978;2022-10-14T00:33:44;97013.16;;;14.50;42.35
25350;BME280;13302;48.796;11.978;2022-10-14T00:36:31;97019.53;;;14.51;42.53
25350;BME280;13302;48.796;11.978;2022-10-14T00:39:18;97016.75;;;14.51;42.25
25350;BME280;13302;48.796;11.978;2022-10-14T00:42:11;97010.38;;;14.50;42.32
25350;BME280;13302;48.796;11.978;2022-10-14T00:45:05;97015.59;;;14.52;42.62
25350;BME280;13302;48.796;11.978;2022-10-14T00:47:54;97013.63;;;14.52;42.31
25350;BME280;13302;48.796;11.978;2022-10-14T00:50:43;97021.16;;;14.52;42.53
25350;BME280;13302;48.796;11.978;2022-10-14T00:53:31;97018.38;;;14.52;42.29
25350;BME280;13302;48.796;11.978;2022-10-14T00:56:27;97017.94;;;14.50;42.11
25350;BME280;13302;48.796;11.978;2022-10-14T00:59:15;97016.75;;;14.51;42.31
25350;BME280;13302;48.796;11.978;2022-10-14T01:02:02;97026.28;;;14.50;42.50
25350;BME280;13302;48.796;11.978;2022-10-14T01:04:49;97017.13;;;14.49;42.57
25350;BME280;13302;48.796;11.978;2022-10-14T01:08:02;97009.97;;;14.48;42.55
25350;BME280;13302;48.796;11.978;2022-10-14T01:11:17;97006.75;;;14.46;42.54
25350;BME280;13302;48.796;11.978;2022-10-14T01:14:31;97011.09;;;14.44;42.88
25350;BME280;13302;48.796;11.978;2022-10-14T01:21:04;97016.66;;;14.44;42.66
25350;BME280;13302;48.796;11.978;2022-10-14T01:24:17;97018.22;;;14.45;42.82
25350;BME280;13302;48.796;11.978;2022-10-14T01:27:35;97017.06;;;14.46;43.04
25350;BME280;13302;48.796;11.978;2022-10-14T01:30:43;97021.47;;;14.47;42.85
25350;BME280;13302;48.796;11.978;2022-10-14T01:33:38;97017.50;;;14.48;42.77
25350;BME280;13302;48.796;11.978;2022-10-14T01:39:25;97018.31;;;14.48;42.79
25350;BME280;13302;48.796;11.978;2022-10-14T01:42:17;97002.84;;;14.51;42.59
25350;BME280;13302;48.796;11.978;2022-10-14T01:45:16;97012.00;;;14.51;42.76
25350;BME280;13302;48.796;11.978;2022-10-14T01:48:06;97004.88;;;14.54;42.84
25350;BME280;13302;48.796;11.978;2022-10-14T01:50:56;96994.56;;;14.54;42.88
25350;BME280;13302;48.796;11.978;2022-10-14T01:53:49;97000.94;;;14.55;42.87
25350;BME280;13302;48.796;11.978;2022-10-14T01:56:44;97002.53;;;14.56;42.76
25350;BME280;13302;48.796;11.978;2022-10-14T01:59:34;97001.34;;;14.57;42.97
25350;BME280;13302;48.796;11.978;2022-10-14T02:02:23;97005.38;;;14.59;42.72
25350;BME280;13302;48.796;11.978;2022-10-14T02:08:19;96990.22;;;14.57;42.82
25350;BME280;13302;48.796;11.978;2022-10-14T02:11:19;96998.56;;;14.57;42.99
25350;BME280;13302;48.796;11.978;2022-10-14T02:16:57;96993.38;;;14.55;42.74
25350;BME280;13302;48.796;11.978;2022-10-14T02:19:55;96997.78;;;14.56;42.98
25350;BME280;13302;48.796;11.978;2022-10-14T02:22:47;96994.19;;;14.56;42.78
25350;BME280;13302;48.796;11.978;2022-10-14T02:25:44;97000.16;;;14.58;42.92
25350;BME280;13302;48.796;11.978;2022-10-14T02:28:33;96993.84;;;14.61;42.74
25350;BME280;13302;48.796;11.978;2022-10-14T02:31:23;96997.84;;;14.60;42.87
25350;BME280;13302;48.796;11.978;2022-10-14T02:34:16;96993.06;;;14.60;42.89
25350;BME280;13302;48.796;11.978;2022-10-14T02:37:05;97000.66;;;14.63;43.18
25350;BME280;13302;48.796;11.978;2022-10-14T02:39:58;96996.25;;;14.62;43.14
25350;BME280;13302;48.796;11.978;2022-10-14T02:42:46;96995.91;;;14.64;42.75
25350;BME280;13302;48.796;11.978;2022-10-14T02:45:33;97008.19;;;14.63;42.81
25350;BME280;13302;48.796;11.978;2022-10-14T02:48:20;97001.47;;;14.64;43.00
25350;BME280;13302;48.796;11.978;2022-10-14T02:51:07;96998.28;;;14.65;42.67
25350;BME280;13302;48.796;11.978;2022-10-14T02:53:57;96996.72;;;14.64;42.77
25350;BME280;13302;48.796;11.978;2022-10-14T02:56:45;97002.28;;;14.64;42.94
25350;BME280;13302;48.796;11.978;2022-10-14T02:59:32;96997.06;;;14.63;42.83
25350;BME280;13302;48.796;11.978;2022-10-14T03:02:19;97003.00;;;14.61;42.69
25350;BME280;13302;48.796;11.978;2022-10-14T03:05:07;97002.19;;;14.61;42.80
25350;BME280;13302;48.796;11.978;2022-10-14T03:07:54;96999.41;;;14.61;42.78
25350;BME280;13302;48.796;11.978;2022-10-14T03:10:46;96989.84;;;14.58;42.99
25350;BME280;13302;48.796;11.978;2022-10-14T03:13:34;96996.63;;;14.61;43.22
25350;BME280;13302;48.796;11.978;2022-10-14T03:16:21;96986.31;;;14.61;43.25
25350;BME280;13302;48.796;11.978;2022-10-14T03:19:08;96989.91;;;14.62;43.34
25350;BME280;13302;48.796;11.978;2022-10-14T03:22:03;96979.22;;;14.64;43.38
25350;BME280;13302;48.796;11.978;2022-10-14T03:24:51;96979.22;;;14.64;43.38
25350;BME280;13302;48.796;11.978;2022-10-14T03:27:45;96983.22;;;14.66;43.39
25350;BME280;13302;48.796;11.978;2022-10-14T03:30:33;96983.66;;;14.68;43.31
25350;BME280;13302;48.796;11.978;2022-10-14T03:33:28;96988.81;;;14.70;43.32
25350;BME280;13302;48.796;11.978;2022-10-14T03:36:27;96977.34;;;14.71;43.54
25350;BME280;13302;48.796;11.978;2022-10-14T03:39:16;96985.31;;;14.73;43.45
25350;BME280;13302;48.796;11.978;2022-10-14T03:42:07;96984.13;;;14.74;43.32
25350;BME280;13302;48.796;11.978;2022-10-14T03:45:01;96984.56;;;14.76;43.29
25350;BME280;13302;48.796;11.978;2022-10-14T03:47:49;96986.94;;;14.78;43.22
25350;BME280;13302;48.796;11.978;2022-10-14T03:50:36;96990.53;;;14.78;43.51
25350;BME280;13302;48.796;11.978;2022-10-14T03:53:25;96983.44;;;14.81;43.30
25350;BME280;13302;48.796;11.978;2022-10-14T03:56:12;96987.03;;;14.81;43.36
25350;BME280;13302;48.796;11.978;2022-10-14T03:59:00;96981.88;;;14.83;43.30
25350;BME280;13302;48.796;11.978;2022-10-14T04:01:47;96980.69;;;14.84;43.27
25350;BME280;13302;48.796;11.978;2022-10-14T04:04:41;96987.06;;;14.85;43.57
25350;BME280;13302;48.796;11.978;2022-10-14T04:07:28;96975.13;;;14.84;43.34
25350;BME280;13302;48.796;11.978;2022-10-14T04:10:16;96976.75;;;14.85;43.27
25350;BME280;13302;48.796;11.978;2022-10-14T04:13:09;96972.75;;;14.86;43.35
25350;BME280;13302;48.796;11.978;2022-10-14T04:16:06;96956.06;;;14.86;43.26
25350;BME280;13302;48.796;11.978;2022-10-14T04:19:14;96955.69;;;14.88;43.31
25350;BME280;13302;48.796;11.978;2022-10-14T04:22:01;96966.47;;;14.89;43.62
25350;BME280;13302;48.796;11.978;2022-10-14T04:24:49;96956.91;;;14.90;43.47
25350;BME280;13302;48.796;11.978;2022-10-14T04:27:36;96956.91;;;14.90;43.55
25350;BME280;13302;48.796;11.978;2022-10-14T04:30:27;96962.47;;;14.90;43.67
25350;BME280;13302;48.796;11.978;2022-10-14T04:33:14;96961.31;;;14.91;43.34
25350;BME280;13302;48.796;11.978;2022-10-14T04:36:04;96958.50;;;14.91;43.77
25350;BME280;13302;48.796;11.978;2022-10-14T04:38:55;96945.06;;;14.93;43.78
25350;BME280;13302;48.796;11.978;2022-10-14T04:41:43;96951.41;;;14.94;43.37
25350;BME280;13302;48.796;11.978;2022-10-14T04:44:34;96951.41;;;14.94;43.54
25350;BME280;13302;48.796;11.978;2022-10-14T04:47:21;96941.09;;;14.94;43.90
25350;BME280;13302;48.796;11.978;2022-10-14T04:50:14;96939.53;;;14.97;43.63
25350;BME280;13302;48.796;11.978;2022-10-14T04:53:21;96940.75;;;14.99;43.50
25350;BME280;13302;48.796;11.978;2022-10-14T04:56:23;96939.59;;;15.00;43.62
25350;BME280;13302;48.796;11.978;2022-10-14T04:59:16;96938.41;;;15.01;43.90
25350;BME280;13302;48.796;11.978;2022-10-14T05:02:32;96928.09;;;15.02;43.90
25350;BME280;13302;48.796;11.978;2022-10-14T05:05:20;96928.09;;;15.02;43.53
25350;BME280;13302;48.796;11.978;2022-10-14T05:08:12;96924.91;;;15.03;43.92
25350;BME280;13302;48.796;11.978;2022-10-14T05:11:02;96926.50;;;15.04;43.86
25350;BME280;13302;48.796;11.978;2022-10-14T05:14:01;96920.94;;;15.04;43.91
25350;BME280;13302;48.796;11.978;2022-10-14T05:16:51;96922.13;;;15.03;43.87
25350;BME280;13302;48.796;11.978;2022-10-14T05:19:45;96922.91;;;15.04;43.92
25350;BME280;13302;48.796;11.978;2022-10-14T05:22:32;96917.34;;;15.04;43.94
25350;BME280;13302;48.796;11.978;2022-10-14T05:25:19;96917.34;;;15.04;43.39
25350;BME280;13302;48.796;11.978;2022-10-14T05:28:10;96914.56;;;15.04;43.75
25350;BME280;13302;48.796;11.978;2022-10-14T05:31:00;96914.56;;;15.04;43.42
25350;BME280;13302;48.796;11.978;2022-10-14T05:33:49;96916.94;;;15.02;43.78
25350;BME280;13302;48.796;11.978;2022-10-14T05:36:37;96922.50;;;15.02;43.71
25350;BME280;13302;48.796;11.978;2022-10-14T05:39:24;96922.50;;;15.02;43.44
25350;BME280;13302;48.796;11.978;2022-10-14T05:42:14;96925.66;;;15.00;43.85
25350;BME280;13302;48.796;11.978;2022-10-14T05:45:03;96933.66;;;15.02;43.58
25350;BME280;13302;48.796;11.978;2022-10-14T05:47:53;96930.06;;;15.01;43.67
25350;BME280;13302;48.796;11.978;2022-10-14T05:50:41;96928.84;;;15.02;43.57
25350;BME280;13302;48.796;11.978;2022-10-14T05:53:33;96936.84;;;15.04;43.41
25350;BME280;13302;48.796;11.978;2022-10-14T05:56:24;96939.63;;;15.04;43.79
25350;BME280;13302;48.796;11.978;2022-10-14T05:59:11;96938.81;;;15.03;43.52
25350;BME280;13302;48.796;11.978;2022-10-14T06:01:59;96946.00;;;15.04;43.50
25350;BME280;13302;48.796;11.978;2022-10-14T06:04:46;96946.00;;;15.04;43.91
25350;BME280;13302;48.796;11.978;2022-10-14T06:07:34;96940.84;;;15.06;43.56
25350;BME280;13302;48.796;11.978;2022-10-14T06:10:22;96941.66;;;15.07;43.62
25350;BME280;13302;48.796;11.978;2022-10-14T06:13:09;96943.63;;;15.06;43.96
25350;BME280;13302;48.796;11.978;2022-10-14T06:16:02;96942.84;;;15.06;43.88
25350;BME280;13302;48.796;11.978;2022-10-14T06:18:49;96944.44;;;15.07;43.54
25350;BME280;13302;48.796;11.978;2022-10-14T06:21:40;96942.44;;;15.07;43.78
25350;BME280;13302;48.796;11.978;2022-10-14T06:24:27;96948.81;;;15.08;43.97
25350;BME280;13302;48.796;11.978;2022-10-14T06:27:14;96945.22;;;15.07;43.88
25350;BME280;13302;48.796;11.978;2022-10-14T06:30:02;96943.25;;;15.08;43.93
25350;BME280;13302;48.796;11.978;2022-10-14T06:32:51;96942.09;;;15.09;43.64
25350;BME280;13302;48.796;11.978;2022-10-14T06:35:38;96946.47;;;15.10;43.92
25350;BME280;13302;48.796;11.978;2022-10-14T06:38:25;96948.47;;;15.09;43.95
25350;BME280;13302;48.796;11.978;2022-10-14T06:41:12;96950.03;;;15.10;43.92
25350;BME280;13302;48.796;11.978;2022-10-14T06:43:59;96946.47;;;15.10;43.78
25350;BME280;13302;48.796;11.978;2022-10-14T06:46:46;96944.91;;;15.12;43.63
25350;BME280;13302;48.796;11.978;2022-10-14T06:49:33;96944.53;;;15.14;43.87
25350;BME280;13302;48.796;11.978;2022-10-14T06:52:20;96945.31;;;15.14;43.82
25350;BME280;13302;48.796;11.978;2022-10-14T06:55:08;96944.94;;;15.16;43.84
25350;BME280;13302;48.796;11.978;2022-10-14T06:57:55;96946.56;;;15.17;43.63
25350;BME280;13302;48.796;11.978;2022-10-14T07:00:42;96943.38;;;15.18;43.82
25350;BME280;13302;48.796;11.978;2022-10-14T07:03:35;96947.78;;;15.20;43.79
25350;BME280;13302;48.796;11.978;2022-10-14T07:06:22;96950.19;;;15.21;43.77
25350;BME280;13302;48.796;11.978;2022-10-14T07:09:09;96947.00;;;15.23;44.15
25350;BME280;13302;48.796;11.978;2022-10-14T07:11:56;96942.69;;;15.25;44.07
25350;BME280;13302;48.796;11.978;2022-10-14T07:14:43;96936.72;;;15.27;43.93
25350;BME280;13302;48.796;11.978;2022-10-14T07:17:30;96941.53;;;15.30;44.28
25350;BME280;13302;48.796;11.978;2022-10-14T07:20:18;96941.13;;;15.31;44.21
25350;BME280;13302;48.796;11.978;2022-10-14T07:23:05;96938.78;;;15.33;43.99
25350;BME280;13302;48.796;11.978;2022-10-14T07:25:55;96938.78;;;15.33;43.91
25350;BME280;13302;48.796;11.978;2022-10-14T07:28:42;96936.03;;;15.37;43.90
25350;BME280;13302;48.796;11.978;2022-10-14T07:31:30;96932.50;;;15.40;43.93
25350;BME280;13302;48.796;11.978;2022-10-14T07:34:17;96937.69;;;15.41;44.28
25350;BME280;13302;48.796;11.978;2022-10-14T07:37:04;96940.09;;;15.43;44.28
25350;BME280;13302;48.796;11.978;2022-10-14T07:39:51;96932.16;;;15.45;44.26
25350;BME280;13302;48.796;11.978;2022-10-14T07:42:38;96940.94;;;15.47;44.37
25350;BME280;13302;48.796;11.978;2022-10-14T07:45:25;96942.16;;;15.49;43.90
25350;BME280;13302;48.796;11.978;2022-10-14T07:48:12;96940.97;;;15.50;44.07
25350;BME280;13302;48.796;11.978;2022-10-14T07:51:08;96941.78;;;15.51;44.00
25350;BME280;13302;48.796;11.978;2022-10-14T07:53:57;96939.03;;;15.54;44.19
25350;BME280;13302;48.796;11.978;2022-10-14T07:56:45;96935.47;;;15.57;43.91
25350;BME280;13302;48.796;11.978;2022-10-14T07:59:34;96932.31;;;15.59;44.34
25350;BME280;13302;48.796;11.978;2022-10-14T08:02:21;96940.28;;;15.60;44.34
25350;BME280;13302;48.796;11.978;2022-10-14T08:05:09;96933.16;;;15.63;44.25
25350;BME280;13302;48.796;11.978;2022-10-14T08:08:17;96939.94;;;15.66;43.97
25350;BME280;13302;48.796;11.978;2022-10-14T08:11:17;96932.38;;;15.66;43.91
25350;BME280;13302;48.796;11.978;2022-10-14T08:14:05;96931.22;;;15.67;44.30
25350;BME280;13302;48.796;11.978;2022-10-14T08:16:52;96933.63;;;15.69;44.04
25350;BME280;13302;48.796;11.978;2022-10-14T08:19:40;96942.41;;;15.71;43.83
25350;BME280;13302;48.796;11.978;2022-10-14T08:22:27;96936.44;;;15.72;44.27
25350;BME280;13302;48.796;11.978;2022-10-14T08:25:14;96936.06;;;15.74;44.26
25350;BME280;13302;48.796;11.978;2022-10-14T08:28:00;96928.50;;;15.74;43.88
25350;BME280;13302;48.796;11.978;2022-10-14T08:30:47;96936.50;;;15.76;43.96
25350;BME280;13302;48.796;11.978;2022-10-14T08:33:35;96934.13;;;15.78;43.83
25350;BME280;13302;48.796;11.978;2022-10-14T08:36:22;96939.31;;;15.79;44.36
25350;BME280;13302;48.796;11.978;2022-10-14T08:39:09;96938.09;;;15.80;44.09
25350;BME280;13302;48.796;11.978;2022-10-14T08:45:09;96938.16;;;15.84;44.10
25350;BME280;13302;48.796;11.978;2022-10-14T08:47:57;96934.97;;;15.85;44.09
25350;BME280;13302;48.796;11.978;2022-10-14T08:50:58;96932.19;;;15.85;44.15
25350;BME280;13302;48.796;11.978;2022-10-14T08:53:52;96933.81;;;15.86;44.08
25350;BME280;13302;48.796;11.978;2022-10-14T08:56:43;96938.59;;;15.89;44.19
25350;BME280;13302;48.796;11.978;2022-10-14T08:59:33;96936.63;;;15.90;43.83
25350;BME280;13302;48.796;11.978;2022-10-14T09:05:22;96931.06;;;15.93;44.03
25350;BME280;13302;48.796;11.978;2022-10-14T09:08:13;96931.06;;;15.93;44.06
25350;BME280;13302;48.796;11.978;2022-10-14T09:11:01;96923.50;;;15.94;43.86
25350;BME280;13302;48.796;11.978;2022-10-14T09:13:55;96925.94;;;15.95;43.78
25350;BME280;13302;48.796;11.978;2022-10-14T09:16:43;96927.50;;;15.96;43.73
25350;BME280;13302;48.796;11.978;2022-10-14T09:19:45;96927.50;;;15.96;43.72
25350;BME280;13302;48.796;11.978;2022-10-14T09:22:34;96924.34;;;15.98;44.08
25350;BME280;13302;48.796;11.978;2022-10-14T09:25:21;96916.78;;;15.98;43.75
25350;BME280;13302;48.796;11.978;2022-10-14T09:28:08;96921.19;;;15.99;44.07
25350;BME280;13302;48.796;11.978;2022-10-14T09:30:57;96927.13;;;15.98;44.06
25350;BME280;13302;48.796;11.978;2022-10-14T09:33:44;96920.75;;;15.97;44.09
25350;BME280;13302;48.796;11.978;2022-10-14T09:36:31;96925.53;;;15.97;43.78
25350;BME280;13302;48.796;11.978;2022-10-14T09:39:18;96926.72;;;15.96;43.83
25350;BME280;13302;48.796;11.978;2022-10-14T09:42:20;96919.53;;;15.95;44.04
25350;BME280;13302;48.796;11.978;2022-10-14T09:45:15;96919.53;;;15.95;43.74
25350;BME280;13302;48.796;11.978;2022-10-14T09:48:03;96913.56;;;15.96;44.00
25350;BME280;13302;48.796;11.978;2022-10-14T09:50:55;96911.97;;;15.95;44.01
25350;BME280;13302;48.796;11.978;2022-10-14T09:53:45;96906.41;;;15.95;44.02
25350;BME280;13302;48.796;11.978;2022-10-14T09:56:37;96914.78;;;15.95;43.96
25350;BME280;13302;48.796;11.978;2022-10-14T09:59:28;96913.19;;;15.98;44.28
25350;BME280;13302;48.796;11.978;2022-10-14T10:02:21;96914.00;;;15.98;44.28
25350;BME280;13302;48.796;11.978;2022-10-14T10:05:32;96912.00;;;15.99;44.36
25350;BME280;13302;48.796;11.978;2022-10-14T10:08:18;96908.03;;;16.00;44.09
25350;BME280;13302;48.796;11.978;2022-10-14T10:11:11;96909.63;;;16.01;43.96
25350;BME280;13302;48.796;11.978;2022-10-14T10:22:54;96900.09;;;16.05;44.52
25350;BME280;13302;48.796;11.978;2022-10-14T10:25:42;96894.97;;;16.07;44.15
25350;BME280;13302;48.796;11.978;2022-10-14T10:28:29;96896.97;;;16.11;44.39
25350;BME280;13302;48.796;11.978;2022-10-14T10:31:49;96888.97;;;16.09;44.65
25350;BME280;13302;48.796;11.978;2022-10-14T10:37:30;96882.66;;;16.12;43.96
25350;BME280;13302;48.796;11.978;2022-10-14T10:40:25;96881.47;;;16.17;43.63
25350;BME280;13302;48.796;11.978;2022-10-14T10:43:26;96880.28;;;16.18;44.11
25350;BME280;13302;48.796;11.978;2022-10-14T10:46:48;96885.88;;;16.21;43.84
25350;BME280;13302;48.796;11.978;2022-10-14T10:56:14;96863.22;;;16.30;43.85
25350;BME280;13302;48.796;11.978;2022-10-14T11:05:12;96857.28;;;16.35;43.59
25350;BME280;13302;48.796;11.978;2022-10-14T11:18:00;96843.03;;;16.43;43.46
25350;BME280;13302;48.796;11.978;2022-10-14T11:21:01;96830.28;;;16.46;43.49
25350;BME280;13302;48.796;11.978;2022-10-14T11:27:29;96817.91;;;16.43;43.52
25350;BME280;13302;48.796;11.978;2022-10-14T11:33:36;96805.16;;;16.46;43.55
25350;BME280;13302;48.796;11.978;2022-10-14T11:48:41;96798.41;;;16.54;43.05
25350;BME280;13302;48.796;11.978;2022-10-14T11:51:41;96785.69;;;16.53;43.07
25350;BME280;13302;48.796;11.978;2022-10-14T11:54:43;96786.88;;;16.56;42.97
25350;BME280;13302;48.796;11.978;2022-10-14T11:57:43;96786.50;;;16.57;43.17
25350;BME280;13302;48.796;11.978;2022-10-14T12:00:34;96776.91;;;16.58;43.24
25350;BME280;13302;48.796;11.978;2022-10-14T12:03:53;96772.13;;;16.59;43.27
25350;BME280;13302;48.796;11.978;2022-10-14T12:06:48;96768.56;;;16.62;43.02
25350;BME280;13302;48.796;11.978;2022-10-14T12:09:46;96751.81;;;16.62;43.13
25350;BME280;13302;48.796;11.978;2022-10-14T12:12:35;96752.63;;;16.66;42.96
25350;BME280;13302;48.796;11.978;2022-10-14T12:15:24;96757.81;;;16.67;42.50
25350;BME280;13302;48.796;11.978;2022-10-14T12:18:11;96761.00;;;16.69;42.66
25350;BME280;13302;48.796;11.978;2022-10-14T12:24:17;96756.63;;;16.68;42.78
25350;BME280;13302;48.796;11.978;2022-10-14T12:27:10;96755.03;;;16.71;42.18
25350;BME280;13302;48.796;11.978;2022-10-14T12:29:58;96747.06;;;16.73;42.33
25350;BME280;13302;48.796;11.978;2022-10-14T12:33:04;96740.69;;;16.72;42.61
25350;BME280;13302;48.796;11.978;2022-10-14T12:35:56;96748.25;;;16.75;42.32
25350;BME280;13302;48.796;11.978;2022-10-14T12:42:09;96734.72;;;16.77;42.54
25350;BME280;13302;48.796;11.978;2022-10-14T12:44:59;96736.31;;;16.78;42.53
25350;BME280;13302;48.796;11.978;2022-10-14T12:48:04;96735.91;;;16.80;42.36
25350;BME280;13302;48.796;11.978;2022-10-14T12:51:10;96730.31;;;16.80;42.42
25350;BME280;13302;48.796;11.978;2022-10-14T12:54:06;96735.53;;;16.81;42.45
25350;BME280;13302;48.796;11.978;2022-10-14T12:57:01;96733.13;;;16.83;42.17
25350;BME280;13302;48.796;11.978;2022-10-14T12:59:50;96725.16;;;16.85;42.29
25350;BME280;13302;48.796;11.978;2022-10-14T13:02:43;96727.16;;;16.85;41.95
25350;BME280;13302;48.796;11.978;2022-10-14T13:08:27;96718.41;;;16.86;42.29
25350;BME280;13302;48.796;11.978;2022-10-14T13:11:14;96720.38;;;16.86;42.22
25350;BME280;13302;48.796;11.978;2022-10-14T13:14:24;96717.59;;;16.86;41.86
25350;BME280;13302;48.796;11.978;2022-10-14T13:26:46;96721.16;;;16.83;41.77
25350;BME280;13302;48.796;11.978;2022-10-14T13:29:59;96709.22;;;16.82;41.70
25350;BME280;13302;48.796;11.978;2022-10-14T13:32:57;96699.22;;;16.85;41.75
25350;BME280;13302;48.796;11.978;2022-10-14T13:35:55;96701.59;;;16.83;41.99
25350;BME280;13302;48.796;11.978;2022-10-14T13:38:56;96693.22;;;16.83;41.65
25350;BME280;13302;48.796;11.978;2022-10-14T13:41:45;96697.25;;;16.85;41.76
25350;BME280;13302;48.796;11.978;2022-10-14T13:44:33;96701.63;;;16.86;41.78
25350;BME280;13302;48.796;11.978;2022-10-14T13:47:21;96697.63;;;16.87;41.53
25350;BME280;13302;48.796;11.978;2022-10-14T13:50:11;96692.84;;;16.88;41.51
25350;BME280;13302;48.796;11.978;2022-10-14T13:53:10;96697.25;;;16.89;41.52
25350;BME280;13302;48.796;11.978;2022-10-14T13:55:59;96687.69;;;16.90;41.85
25350;BME280;13302;48.796;11.978;2022-10-14T13:58:46;96690.88;;;16.92;41.73
25350;BME280;13302;48.796;11.978;2022-10-14T14:01:37;96690.47;;;16.90;41.64
25350;BME280;13302;48.796;11.978;2022-10-14T14:04:33;96689.25;;;16.91;41.91
25350;BME280;13302;48.796;11.978;2022-10-14T14:07:24;96690.88;;;16.92;41.67
25350;BME280;13302;48.796;11.978;2022-10-14T14:10:33;96682.09;;;16.93;41.79
25350;BME280;13302;48.796;11.978;2022-10-14T14:13:44;96678.50;;;16.93;41.90
25350;BME280;13302;48.796;11.978;2022-10-14T14:16:45;96674.09;;;16.95;41.34
25350;BME280;13302;48.796;11.978;2022-10-14T14:19:36;96668.53;;;16.95;41.47
25350;BME280;13302;48.796;11.978;2022-10-14T14:22:29;96677.31;;;16.94;41.72
25350;BME280;13302;48.796;11.978;2022-10-14T14:28:30;96667.34;;;16.96;41.37
25350;BME280;13302;48.796;11.978;2022-10-14T14:31:21;96662.94;;;16.95;41.45
25350;BME280;13302;48.796;11.978;2022-10-14T14:34:14;96663.75;;;16.96;41.27
25350;BME280;13302;48.796;11.978;2022-10-14T14:37:01;96652.97;;;16.98;41.30
25350;BME280;13302;48.796;11.978;2022-10-14T14:40:29;96664.97;;;16.98;41.48
25350;BME280;13302;48.796;11.978;2022-10-14T14:43:16;96663.34;;;17.01;41.71
25350;BME280;13302;48.796;11.978;2022-10-14T14:46:04;96666.94;;;17.02;41.68
25350;BME280;13302;48.796;11.978;2022-10-14T14:48:53;96656.56;;;17.02;41.31
25350;BME280;13302;48.796;11.978;2022-10-14T14:51:42;96658.19;;;17.03;41.42
25350;BME280;13302;48.796;11.978;2022-10-14T14:54:29;96658.19;;;17.03;41.59
25350;BME280;13302;48.796;11.978;2022-10-14T14:57:19;96660.56;;;17.05;41.72
25350;BME280;13302;48.796;11.978;2022-10-14T15:00:17;96658.19;;;17.03;41.36
25350;BME280;13302;48.796;11.978;2022-10-14T15:03:07;96658.19;;;17.03;41.35
25350;BME280;13302;48.796;11.978;2022-10-14T15:06:00;96654.16;;;17.04;41.50
25350;BME280;13302;48.796;11.978;2022-10-14T15:08:49;96656.56;;;17.06;41.23
25350;BME280;13302;48.796;11.978;2022-10-14T15:11:50;96650.56;;;17.04;41.53
25350;BME280;13302;48.796;11.978;2022-10-14T15:17:33;96645.78;;;17.04;41.37
25350;BME280;13302;48.796;11.978;2022-10-14T15:20:27;96643.81;;;17.05;41.83
25350;BME280;13302;48.796;11.978;2022-10-14T15:23:37;96645.41;;;17.06;41.39
25350;BME280;13302;48.796;11.978;2022-10-14T15:26:32;96642.59;;;17.06;41.35
25350;BME280;13302;48.796;11.978;2022-10-14T15:29:19;96635.41;;;17.08;41.69
25350;BME280;13302;48.796;11.978;2022-10-14T15:32:13;96627.47;;;17.07;41.34
25350;BME280;13302;48.796;11.978;2022-10-14T15:35:00;96632.63;;;17.08;41.72
25350;BME280;13302;48.796;11.978;2022-10-14T15:37:48;96621.88;;;17.07;41.44
25350;BME280;13302;48.796;11.978;2022-10-14T15:40:35;96621.88;;;17.07;41.65
25350;BME280;13302;48.796;11.978;2022-10-14T15:43:24;96625.47;;;17.07;41.33
25350;BME280;13302;48.796;11.978;2022-10-14T15:46:15;96613.50;;;17.07;41.75
25350;BME280;13302;48.796;11.978;2022-10-14T15:49:28;96617.47;;;17.06;41.51
25350;BME280;13302;48.796;11.978;2022-10-14T15:52:16;96614.28;;;17.07;41.44
25350;BME280;13302;48.796;11.978;2022-10-14T15:55:16;96612.69;;;17.06;41.41
25350;BME280;13302;48.796;11.978;2022-10-14T15:58:05;96615.06;;;17.08;41.60
25350;BME280;13302;48.796;11.978;2022-10-14T16:00:52;96609.09;;;17.09;41.73
25350;BME280;13302;48.796;11.978;2022-10-14T16:03:39;96601.50;;;17.10;41.35
25350;BME280;13302;48.796;11.978;2022-10-14T16:06:29;96597.13;;;17.09;41.37
25350;BME280;13302;48.796;11.978;2022-10-14T16:09:18;96608.28;;;17.09;41.71
25350;BME280;13302;48.796;11.978;2022-10-14T16:12:11;96604.69;;;17.08;41.32
25350;BME280;13302;48.796;11.978;2022-10-14T16:14:58;96593.53;;;17.08;41.64
25350;BME280;13302;48.796;11.978;2022-10-14T16:17:47;96593.13;;;17.10;41.50
25350;BME280;13302;48.796;11.978;2022-10-14T16:20:38;96584.75;;;17.10;41.53
25350;BME280;13302;48.796;11.978;2022-10-14T16:23:26;96569.59;;;17.11;41.70
25350;BME280;13302;48.796;11.978;2022-10-14T16:26:18;96586.34;;;17.11;41.74
25350;BME280;13302;48.796;11.978;2022-10-14T16:29:06;96584.75;;;17.06;41.71
25350;BME280;13302;48.796;11.978;2022-10-14T16:31:53;96597.50;;;17.04;41.72
25350;BME280;13302;48.796;11.978;2022-10-14T16:34:41;96605.50;;;16.98;41.77